TimeHST,TemperatureF,Dew PointF,Humidity,Sea Level PressureIn,VisibilityMPH,Wind Direction,Wind SpeedMPH,Gust SpeedMPH,PrecipitationIn,Events,Conditions,WindDirDegrees,DateUTC
12:56 AM,68.0,64.9,90,30.02,10.0,ENE,3.5,-,N/A,,Clear,70,2013-12-09 10:56:00
1:56 AM,68.9,63.0,81,30.02,10.0,NNW,4.6,-,N/A,,Clear,340,2013-12-09 11:56:00
2:56 AM,70.0,68.9,96,30.01,10.0,NNE,12.7,-,N/A,,Clear,20,2013-12-09 12:56:00
3:56 AM,70.9,70.0,97,30.00,10.0,NNE,16.1,-,N/A,,Clear,30,2013-12-09 13:56:00
4:56 AM,72.0,70.9,96,30.00,10.0,NNE,16.1,-,N/A,,Clear,30,2013-12-09 14:56:00
5:56 AM,72.0,68.9,90,30.00,10.0,NE,16.1,-,N/A,,Clear,40,2013-12-09 15:56:00
6:56 AM,70.9,68.9,93,30.03,10.0,Calm,Calm,-,N/A,,Clear,0,2013-12-09 16:56:00
7:56 AM,73.9,70.0,87,30.07,10.0,Calm,Calm,-,N/A,,Clear,0,2013-12-09 17:56:00
8:48 AM,75.2,69.8,83,30.15,10.0,Calm,Calm,-,N/A,,Mostly Cloudy,0,2013-12-09 18:48:00
8:56 AM,77.0,68.0,74,30.09,10.0,Calm,Calm,-,N/A,,Mostly Cloudy,0,2013-12-09 18:56:00
9:39 AM,80.6,69.8,70,30.15,10.0,WNW,9.2,-,N/A,,Partly Cloudy,300,2013-12-09 19:39:00
9:56 AM,82.9,68.9,62,30.07,10.0,NW,8.1,-,N/A,,Clear,310,2013-12-09 19:56:00
10:25 AM,80.6,69.8,70,30.14,10.0,NW,6.9,-,N/A,,Mostly Cloudy,310,2013-12-09 20:25:00
10:56 AM,80.6,69.8,70,30.13,8.0,WNW,6.9,-,N/A,,Overcast,300,2013-12-09 20:56:00
11:56 AM,79.0,68.9,71,30.05,10.0,Variable,5.8,-,N/A,,Mostly Cloudy,0,2013-12-09 21:56:00
12:41 PM,80.6,69.8,70,30.09,10.0,SSW,8.1,-,N/A,,Scattered Clouds,200,2013-12-09 22:41:00
12:56 PM,81.9,70.0,67,30.01,10.0,Variable,4.6,-,N/A,,Scattered Clouds,0,2013-12-09 22:56:00
1:12 PM,82.4,69.8,66,30.07,10.0,SW,6.9,-,N/A,,Mostly Cloudy,220,2013-12-09 23:12:00
1:56 PM,79.0,68.0,69,30.00,10.0,SSW,4.6,-,N/A,,Overcast,210,2013-12-09 23:56:00
2:36 PM,82.4,69.8,66,30.05,10.0,West,9.2,-,N/A,,Scattered Clouds,270,2013-12-10 00:36:00
2:56 PM,81.9,68.9,65,29.99,10.0,WNW,8.1,-,N/A,,Clear,290,2013-12-10 00:56:00
3:21 PM,82.4,69.8,66,30.06,10.0,NW,9.2,-,N/A,,Mostly Cloudy,320,2013-12-10 01:21:00
3:56 PM,79.9,68.9,69,30.00,10.0,NW,5.8,-,N/A,,Overcast,320,2013-12-10 01:56:00
4:46 PM,75.2,69.8,83,30.08,10.0,WSW,4.6,-,0.00,,Overcast,250,2013-12-10 02:46:00
4:56 PM,75.2,71.6,89,30.08,10.0,West,4.6,-,N/A,,Overcast,260,2013-12-10 02:56:00
5:56 PM,74.8,70.0,85,30.03,10.0,Calm,Calm,-,N/A,,Overcast,0,2013-12-10 03:56:00
6:29 PM,75.2,69.8,83,30.10,10.0,Calm,Calm,-,N/A,,Overcast,0,2013-12-10 04:29:00
6:56 PM,73.9,68.0,82,30.05,10.0,Calm,Calm,-,N/A,,Scattered Clouds,0,2013-12-10 04:56:00
7:56 PM,72.9,70.9,93,30.06,10.0,Calm,Calm,-,N/A,,Partly Cloudy,0,2013-12-10 05:56:00
8:25 PM,71.6,71.6,100,30.13,10.0,North,3.5,-,N/A,,Mostly Cloudy,10,2013-12-10 06:25:00
8:37 PM,71.6,71.6,100,30.13,10.0,North,6.9,-,N/A,,Overcast,360,2013-12-10 06:37:00
8:56 PM,70.9,70.9,100,30.07,10.0,North,5.8,-,N/A,,Scattered Clouds,350,2013-12-10 06:56:00
9:56 PM,70.0,70.0,100,30.07,10.0,North,6.9,-,N/A,,Clear,350,2013-12-10 07:56:00
10:56 PM,70.0,70.0,100,30.06,10.0,NNE,16.1,-,N/A,,Clear,30,2013-12-10 08:56:00
11:56 PM,70.9,68.9,93,30.04,10.0,NE,19.6,29.9,N/A,,Clear,40,2013-12-10 09:56:00